No particular awareness of the weather is required.    There are no Weather-warnings


Meteo18 Weather Cam more information Meteo18 Weather Cam


Thunder radar more information blitzortung!


Rain radar more information rain snow radar


Visit our other weather sites:

Template documentation
and downloads

And another site



Weather Underground History page Text

Daily Summary for February 17, 2018 Units:  Both    English   Metric
« Previous Day
Next Day »
Daily Weekly Monthly Yearly Custom
  High: Low: Average:
Temperature: TemperatureC °F /  -17.8 °C 2.8 °F /  -16.2 °C 5.2 °F /  -14.9 °C
Dew Point: DewpointC °F /  -17.8 °C 2.1 °F /  -16.6 °C 4.3 °F /  -15.4 °C
Humidity: Humidity % 87 % 94 %
Wind Speed: WindSpeedKMH mph /  0 km/h - 4.2 mph /  6.8 km/h
Wind Gust: WindSpeedGustKMH mph /  0 km/h - -
Wind:- - SSW
Pressure: PressurehPa in /  0 hPa 1015.1 in /  34371.3 hPa -
Precipitation: 19.0 in /  482.6 mm    
Historical Graphs
 
 
Tabular Data for February 17, 2018
Time Temperature Dew Point Pressure Wind Wind Speed Wind Gust Humidity Rainfall Rate (Hourly)
TemperatureC °F /  -17.8 °C DewpointC °F /  -17.8 °C PressurehPa in /  0 hPa Calm     Humidity % HourlyPrecipMM in /  0 mm
00:01 6.4 °F /  -14.2 °C 4.9 °F /  -15.1 °C 1019.2 in /  34510.1 hPa NE 4.7 mph /  7.6 km/h 6.4 mph /  10.3 km/h 90 % 0.3 in /  7.62 mm
00:07 6.3 °F /  -14.3 °C 4.8 °F /  -15.1 °C 1019.2 in /  34510.1 hPa North 3.2 mph /  5.1 km/h 6.4 mph /  10.3 km/h 90 % 0.3 in /  7.62 mm
00:13 6.3 °F /  -14.3 °C 4.9 °F /  -15.1 °C 1019.2 in /  34510.1 hPa NNE 4.7 mph /  7.6 km/h 8.0 mph /  12.9 km/h 91 % 0.5 in /  12.7 mm
00:19 6.3 °F /  -14.3 °C 4.9 °F /  -15.1 °C 1019.2 in /  34510.1 hPa ENE 3.2 mph /  5.1 km/h 9.7 mph /  15.6 km/h 91 % 0.5 in /  12.7 mm
00:25 6.2 °F /  -14.3 °C 4.8 °F /  -15.1 °C 1019.2 in /  34510.1 hPa NE 4.7 mph /  7.6 km/h 6.4 mph /  10.3 km/h 91 % 0.5 in /  12.7 mm
00:31 6.2 °F /  -14.3 °C 4.8 °F /  -15.1 °C 1019.2 in /  34510.1 hPa NE 3.2 mph /  5.1 km/h 4.8 mph /  7.7 km/h 91 % 0.5 in /  12.7 mm
00:37 6.1 °F /  -14.4 °C 4.9 °F /  -15.1 °C 1019.2 in /  34510.1 hPa Calm   3.2 mph /  5.1 km/h 92 % 0.8 in /  20.32 mm
00:43 6.1 °F /  -14.4 °C 4.9 °F /  -15.1 °C 1019.5 in /  34520.3 hPa Calm   1.6 mph /  2.6 km/h 92 % 1.3 in /  33.02 mm
00:49 6.0 °F /  -14.4 °C 5.0 °F /  -15 °C 1019.5 in /  34520.3 hPa NE 3.2 mph /  5.1 km/h 4.8 mph /  7.7 km/h 93 % 1.5 in /  38.1 mm
00:55 5.9 °F /  -14.5 °C 4.9 °F /  -15.1 °C 1019.2 in /  34510.1 hPa NE 9.7 mph /  15.6 km/h 9.7 mph /  15.6 km/h 93 % 2.0 in /  50.8 mm
01:01 5.8 °F /  -14.6 °C 4.8 °F /  -15.1 °C 1018.8 in /  34496.6 hPa NNE 11.1 mph /  17.9 km/h 14.5 mph /  23.3 km/h 93 % 2.3 in /  58.42 mm
01:07 5.7 °F /  -14.6 °C 4.8 °F /  -15.1 °C 1018.5 in /  34486.4 hPa NNE 11.1 mph /  17.9 km/h 14.5 mph /  23.3 km/h 94 % 2.5 in /  63.5 mm
01:13 5.6 °F /  -14.7 °C 4.7 °F /  -15.2 °C 1018.5 in /  34486.4 hPa NNE 6.4 mph /  10.3 km/h 11.3 mph /  18.2 km/h 94 % 2.8 in /  71.12 mm
01:19 5.6 °F /  -14.7 °C 4.7 °F /  -15.2 °C 1018.5 in /  34486.4 hPa NE 3.2 mph /  5.1 km/h 11.3 mph /  18.2 km/h 94 % 3.0 in /  76.2 mm
01:25 5.5 °F /  -14.7 °C 4.8 °F /  -15.1 °C 1018.5 in /  34486.4 hPa NNE 7.9 mph /  12.7 km/h 8.0 mph /  12.9 km/h 95 % 3.3 in /  83.82 mm
01:31 5.4 °F /  -14.8 °C 4.7 °F /  -15.2 °C 1018.5 in /  34486.4 hPa NE 6.4 mph /  10.3 km/h 11.3 mph /  18.2 km/h 95 % 3.3 in /  83.82 mm
01:37 5.4 °F /  -14.8 °C 4.7 °F /  -15.2 °C 1018.2 in /  34476.3 hPa NE 6.4 mph /  10.3 km/h 11.3 mph /  18.2 km/h 95 % 3.8 in /  96.52 mm
01:43 5.4 °F /  -14.8 °C 4.7 °F /  -15.2 °C 1018.2 in /  34476.3 hPa NE 3.2 mph /  5.1 km/h 11.3 mph /  18.2 km/h 95 % 4.3 in /  109.22 mm
01:49 5.3 °F /  -14.8 °C 4.6 °F /  -15.2 °C 1018.5 in /  34486.4 hPa NNW 4.7 mph /  7.6 km/h 9.7 mph /  15.6 km/h 95 % 4.8 in /  121.92 mm
01:55 5.3 °F /  -14.8 °C 4.6 °F /  -15.2 °C 1018.2 in /  34476.3 hPa NE 6.4 mph /  10.3 km/h 19.3 mph /  31.1 km/h 95 % 5.1 in /  129.54 mm
02:01 5.3 °F /  -14.8 °C 4.6 °F /  -15.2 °C 1017.8 in /  34462.7 hPa North 13.0 mph /  20.9 km/h 16.1 mph /  25.9 km/h 95 % 5.1 in /  129.54 mm
02:07 5.3 °F /  -14.8 °C 4.6 °F /  -15.2 °C 1017.8 in /  34462.7 hPa NNE 9.7 mph /  15.6 km/h 14.5 mph /  23.3 km/h 95 % 5.3 in /  134.62 mm
02:13 5.3 °F /  -14.8 °C 4.7 °F /  -15.2 °C 1017.8 in /  34462.7 hPa North 7.9 mph /  12.7 km/h 11.3 mph /  18.2 km/h 96 % 5.6 in /  142.24 mm
02:19 5.3 °F /  -14.8 °C 4.7 °F /  -15.2 °C 1017.8 in /  34462.7 hPa NNE 16.3 mph /  26.2 km/h 19.3 mph /  31.1 km/h 96 % 5.8 in /  147.32 mm
02:25 5.3 °F /  -14.8 °C 4.7 °F /  -15.2 °C 1017.8 in /  34462.7 hPa NNE 9.7 mph /  15.6 km/h 19.3 mph /  31.1 km/h 96 % 6.1 in /  154.94 mm
02:31 5.3 °F /  -14.8 °C 4.7 °F /  -15.2 °C 1017.8 in /  34462.7 hPa NNE 9.7 mph /  15.6 km/h 20.9 mph /  33.6 km/h 96 % 6.1 in /  154.94 mm
02:37 5.3 °F /  -14.8 °C 4.7 °F /  -15.2 °C 1017.5 in /  34452.6 hPa NE 13.0 mph /  20.9 km/h 17.7 mph /  28.5 km/h 96 % 5.8 in /  147.32 mm
02:43 5.3 °F /  -14.8 °C 4.7 °F /  -15.2 °C 1017.2 in /  34442.4 hPa NNE 6.4 mph /  10.3 km/h 19.3 mph /  31.1 km/h 96 % 5.1 in /  129.54 mm
02:49 5.3 °F /  -14.8 °C 4.7 °F /  -15.2 °C 1017.2 in /  34442.4 hPa NE 9.7 mph /  15.6 km/h 16.1 mph /  25.9 km/h 96 % 4.3 in /  109.22 mm
02:55 5.3 °F /  -14.8 °C 4.7 °F /  -15.2 °C 1017.2 in /  34442.4 hPa NE 11.1 mph /  17.9 km/h 16.1 mph /  25.9 km/h 96 % 3.6 in /  91.44 mm
03:01 5.3 °F /  -14.8 °C 4.7 °F /  -15.2 °C 1017.5 in /  34452.6 hPa ENE 9.7 mph /  15.6 km/h 14.5 mph /  23.3 km/h 96 % 3.3 in /  83.82 mm
03:07 5.3 °F /  -14.8 °C 4.7 °F /  -15.2 °C 1017.2 in /  34442.4 hPa NE 9.7 mph /  15.6 km/h 16.1 mph /  25.9 km/h 96 % 2.5 in /  63.5 mm
03:13 5.3 °F /  -14.8 °C 4.7 °F /  -15.2 °C 1017.2 in /  34442.4 hPa NNE 11.1 mph /  17.9 km/h 14.5 mph /  23.3 km/h 96 % 2.5 in /  63.5 mm
03:19 5.3 °F /  -14.8 °C 4.7 °F /  -15.2 °C 1017.2 in /  34442.4 hPa NNE 7.9 mph /  12.7 km/h 16.1 mph /  25.9 km/h 96 % 2.3 in /  58.42 mm
03:25 5.3 °F /  -14.8 °C 4.7 °F /  -15.2 °C 1016.8 in /  34428.8 hPa NE 13.0 mph /  20.9 km/h 17.7 mph /  28.5 km/h 96 % 1.8 in /  45.72 mm
03:31 5.3 °F /  -14.8 °C 4.7 °F /  -15.2 °C 1016.8 in /  34428.8 hPa NNW 6.4 mph /  10.3 km/h 14.5 mph /  23.3 km/h 96 % 1.5 in /  38.1 mm
03:37 5.3 °F /  -14.8 °C 4.7 °F /  -15.2 °C 1016.8 in /  34428.8 hPa NE 6.4 mph /  10.3 km/h 17.7 mph /  28.5 km/h 96 % 1.3 in /  33.02 mm
03:43 5.3 °F /  -14.8 °C 4.7 °F /  -15.2 °C 1016.5 in /  34418.7 hPa NNW 4.7 mph /  7.6 km/h 6.4 mph /  10.3 km/h 96 % 1.0 in /  25.4 mm
03:49 5.3 °F /  -14.8 °C 4.7 °F /  -15.2 °C 1016.5 in /  34418.7 hPa NE 3.2 mph /  5.1 km/h 8.0 mph /  12.9 km/h 96 % 1.0 in /  25.4 mm
03:55 5.3 °F /  -14.8 °C 4.7 °F /  -15.2 °C 1016.1 in /  34405.1 hPa NNE 7.9 mph /  12.7 km/h 9.7 mph /  15.6 km/h 96 % 1.0 in /  25.4 mm
04:01 5.3 °F /  -14.8 °C 4.7 °F /  -15.2 °C 1016.1 in /  34405.1 hPa NE 9.7 mph /  15.6 km/h 11.3 mph /  18.2 km/h 96 % 0.8 in /  20.32 mm
04:07 5.3 °F /  -14.8 °C 4.7 °F /  -15.2 °C 1016.1 in /  34405.1 hPa NNE 4.7 mph /  7.6 km/h 14.5 mph /  23.3 km/h 96 % 1.0 in /  25.4 mm
04:13 5.2 °F /  -14.9 °C 4.6 °F /  -15.2 °C 1016.1 in /  34405.1 hPa ENE 7.9 mph /  12.7 km/h 11.3 mph /  18.2 km/h 96 % 0.5 in /  12.7 mm
04:19 5.2 °F /  -14.9 °C 4.6 °F /  -15.2 °C 1015.8 in /  34395 hPa NE 4.7 mph /  7.6 km/h 12.9 mph /  20.8 km/h 96 % 0.5 in /  12.7 mm
04:25 5.2 °F /  -14.9 °C 4.6 °F /  -15.2 °C 1015.8 in /  34395 hPa NNE 4.7 mph /  7.6 km/h 11.3 mph /  18.2 km/h 96 % 0.5 in /  12.7 mm
04:31 5.2 °F /  -14.9 °C 4.6 °F /  -15.2 °C 1015.5 in /  34384.8 hPa ENE 3.2 mph /  5.1 km/h 8.0 mph /  12.9 km/h 96 % 0.5 in /  12.7 mm
04:37 5.2 °F /  -14.9 °C 4.8 °F /  -15.1 °C 1015.5 in /  34384.8 hPa ENE 13.0 mph /  20.9 km/h 13.0 mph /  20.9 km/h 97 % 0.5 in /  12.7 mm
04:43 5.1 °F /  -14.9 °C 4.7 °F /  -15.2 °C 1015.1 in /  34371.3 hPa NE 7.9 mph /  12.7 km/h 12.9 mph /  20.8 km/h 97 % 0.5 in /  12.7 mm
04:49 5.1 °F /  -14.9 °C 4.7 °F /  -15.2 °C 1015.5 in /  34384.8 hPa NE 7.9 mph /  12.7 km/h 14.5 mph /  23.3 km/h 97 % 0.3 in /  7.62 mm
04:55 5.1 °F /  -14.9 °C 4.7 °F /  -15.2 °C 1015.5 in /  34384.8 hPa NE 11.1 mph /  17.9 km/h 17.7 mph /  28.5 km/h 97 % 0.3 in /  7.62 mm
05:01 5.1 °F /  -14.9 °C 4.7 °F /  -15.2 °C 1015.5 in /  34384.8 hPa NNW 4.7 mph /  7.6 km/h 12.9 mph /  20.8 km/h 97 % 0.3 in /  7.62 mm
05:07 5.1 °F /  -14.9 °C 4.7 °F /  -15.2 °C 1015.5 in /  34384.8 hPa ENE 1.4 mph /  2.3 km/h 4.8 mph /  7.7 km/h 97 % 0.0 in /  0 mm
05:13 5.1 °F /  -14.9 °C 4.7 °F /  -15.2 °C 1015.5 in /  34384.8 hPa NE 4.7 mph /  7.6 km/h 12.9 mph /  20.8 km/h 97 % 0.0 in /  0 mm
05:19 5.1 °F /  -14.9 °C 4.7 °F /  -15.2 °C 1015.5 in /  34384.8 hPa North 4.7 mph /  7.6 km/h 6.4 mph /  10.3 km/h 97 % 0.0 in /  0 mm
05:25 5.1 °F /  -14.9 °C 4.7 °F /  -15.2 °C 1015.1 in /  34371.3 hPa NE 4.7 mph /  7.6 km/h 12.9 mph /  20.8 km/h 97 % 0.0 in /  0 mm
05:31 5.1 °F /  -14.9 °C 4.7 °F /  -15.2 °C 1015.5 in /  34384.8 hPa NNW 1.4 mph /  2.3 km/h 3.2 mph /  5.1 km/h 97 % 0.0 in /  0 mm
05:37 5.2 °F /  -14.9 °C 4.8 °F /  -15.1 °C 1015.5 in /  34384.8 hPa NNW 1.4 mph /  2.3 km/h 4.8 mph /  7.7 km/h 97 % 0.3 in /  7.62 mm
05:43 5.2 °F /  -14.9 °C 4.8 °F /  -15.1 °C 1015.5 in /  34384.8 hPa Calm   3.2 mph /  5.1 km/h 97 % 0.3 in /  7.62 mm
05:49 5.2 °F /  -14.9 °C 4.8 °F /  -15.1 °C 1015.5 in /  34384.8 hPa NW 3.2 mph /  5.1 km/h 6.4 mph /  10.3 km/h 97 % 0.3 in /  7.62 mm
05:55 5.3 °F /  -14.8 °C 4.9 °F /  -15.1 °C 1015.5 in /  34384.8 hPa WNW 4.7 mph /  7.6 km/h 8.0 mph /  12.9 km/h 97 % 0.3 in /  7.62 mm
06:01 5.2 °F /  -14.9 °C 4.8 °F /  -15.1 °C 1015.8 in /  34395 hPa NNE 7.9 mph /  12.7 km/h 11.3 mph /  18.2 km/h 97 % 0.5 in /  12.7 mm
06:07 5.2 °F /  -14.9 °C 4.8 °F /  -15.1 °C 1015.8 in /  34395 hPa NW 1.4 mph /  2.3 km/h 8.0 mph /  12.9 km/h 97 % 0.5 in /  12.7 mm
06:13 5.2 °F /  -14.9 °C 4.8 °F /  -15.1 °C 1016.1 in /  34405.1 hPa NNW 4.7 mph /  7.6 km/h 6.4 mph /  10.3 km/h 97 % 0.8 in /  20.32 mm
06:19 5.2 °F /  -14.9 °C 4.8 °F /  -15.1 °C 1016.1 in /  34405.1 hPa Calm   4.8 mph /  7.7 km/h 97 % 0.8 in /  20.32 mm
06:25 5.3 °F /  -14.8 °C 4.9 °F /  -15.1 °C 1016.1 in /  34405.1 hPa NNW 6.4 mph /  10.3 km/h 8.0 mph /  12.9 km/h 97 % 1.3 in /  33.02 mm
06:31 5.3 °F /  -14.8 °C 4.9 °F /  -15.1 °C 1016.1 in /  34405.1 hPa NNW 3.2 mph /  5.1 km/h 9.7 mph /  15.6 km/h 97 % 1.5 in /  38.1 mm
06:37 5.3 °F /  -14.8 °C 4.9 °F /  -15.1 °C 1016.1 in /  34405.1 hPa NW 3.2 mph /  5.1 km/h 6.4 mph /  10.3 km/h 97 % 1.5 in /  38.1 mm
06:43 5.3 °F /  -14.8 °C 4.9 °F /  -15.1 °C 1016.1 in /  34405.1 hPa NW 3.2 mph /  5.1 km/h 8.0 mph /  12.9 km/h 97 % 1.5 in /  38.1 mm
06:49 5.3 °F /  -14.8 °C 4.9 °F /  -15.1 °C 1016.1 in /  34405.1 hPa NNW 3.2 mph /  5.1 km/h 6.4 mph /  10.3 km/h 97 % 1.8 in /  45.72 mm
06:55 5.2 °F /  -14.9 °C 4.8 °F /  -15.1 °C 1016.1 in /  34405.1 hPa NNW 3.2 mph /  5.1 km/h 4.8 mph /  7.7 km/h 97 % 2.3 in /  58.42 mm
07:01 5.2 °F /  -14.9 °C 4.8 °F /  -15.1 °C 1016.1 in /  34405.1 hPa NNW 4.7 mph /  7.6 km/h 8.0 mph /  12.9 km/h 97 % 2.3 in /  58.42 mm
07:07 5.1 °F /  -14.9 °C 4.7 °F /  -15.2 °C 1016.1 in /  34405.1 hPa NNW 3.2 mph /  5.1 km/h 6.4 mph /  10.3 km/h 97 % 2.3 in /  58.42 mm
07:13 5.1 °F /  -14.9 °C 4.7 °F /  -15.2 °C 1016.1 in /  34405.1 hPa NNW 7.9 mph /  12.7 km/h 9.7 mph /  15.6 km/h 97 % 2.0 in /  50.8 mm
07:19 5.0 °F /  -15 °C 4.6 °F /  -15.2 °C 1016.1 in /  34405.1 hPa NNW 4.7 mph /  7.6 km/h 6.4 mph /  10.3 km/h 97 % 2.3 in /  58.42 mm
07:25 4.9 °F /  -15.1 °C 4.5 °F /  -15.3 °C 1016.1 in /  34405.1 hPa NNW 11.1 mph /  17.9 km/h 12.9 mph /  20.8 km/h 97 % 1.8 in /  45.72 mm
07:31 4.8 °F /  -15.1 °C 4.2 °F /  -15.4 °C 1016.1 in /  34405.1 hPa NNW 7.9 mph /  12.7 km/h 16.1 mph /  25.9 km/h 96 % 1.8 in /  45.72 mm
07:37 4.7 °F /  -15.2 °C 4.1 °F /  -15.5 °C 1016.5 in /  34418.7 hPa NNW 9.7 mph /  15.6 km/h 11.3 mph /  18.2 km/h 96 % 1.5 in /  38.1 mm
07:43 4.6 °F /  -15.2 °C 4.0 °F /  -15.6 °C 1016.5 in /  34418.7 hPa North 3.2 mph /  5.1 km/h 8.0 mph /  12.9 km/h 96 % 1.5 in /  38.1 mm
07:50 4.6 °F /  -15.2 °C 4.0 °F /  -15.6 °C 1016.5 in /  34418.7 hPa Calm   6.4 mph /  10.3 km/h 96 % 1.3 in /  33.02 mm
07:56 4.4 °F /  -15.3 °C 3.8 °F /  -15.7 °C 1016.5 in /  34418.7 hPa North 4.7 mph /  7.6 km/h 9.7 mph /  15.6 km/h 96 % 1.0 in /  25.4 mm
08:02 4.4 °F /  -15.3 °C 3.8 °F /  -15.7 °C 1016.8 in /  34428.8 hPa NW 1.4 mph /  2.3 km/h 6.4 mph /  10.3 km/h 96 % 0.8 in /  20.32 mm
08:08 4.4 °F /  -15.3 °C 3.8 °F /  -15.7 °C 1016.8 in /  34428.8 hPa NNW 11.1 mph /  17.9 km/h 12.9 mph /  20.8 km/h 96 % 0.5 in /  12.7 mm
08:14 4.4 °F /  -15.3 °C 3.8 °F /  -15.7 °C 1016.8 in /  34428.8 hPa NW 7.9 mph /  12.7 km/h 11.3 mph /  18.2 km/h 96 % 0.5 in /  12.7 mm
08:20 4.3 °F /  -15.4 °C 3.7 °F /  -15.7 °C 1016.8 in /  34428.8 hPa NNW 9.7 mph /  15.6 km/h 11.3 mph /  18.2 km/h 96 % 0.5 in /  12.7 mm
08:26 4.3 °F /  -15.4 °C 3.7 °F /  -15.7 °C 1016.8 in /  34428.8 hPa NE 4.7 mph /  7.6 km/h 11.3 mph /  18.2 km/h 96 % 0.5 in /  12.7 mm
08:32 4.3 °F /  -15.4 °C 3.7 °F /  -15.7 °C 1016.8 in /  34428.8 hPa NNW 6.4 mph /  10.3 km/h 8.0 mph /  12.9 km/h 96 % 0.5 in /  12.7 mm
08:38 4.3 °F /  -15.4 °C 3.7 °F /  -15.7 °C 1017.2 in /  34442.4 hPa North 3.2 mph /  5.1 km/h 4.8 mph /  7.7 km/h 96 % 0.5 in /  12.7 mm
08:44 4.3 °F /  -15.4 °C 3.7 °F /  -15.7 °C 1017.2 in /  34442.4 hPa North 3.2 mph /  5.1 km/h 6.4 mph /  10.3 km/h 96 % 0.5 in /  12.7 mm
08:50 4.3 °F /  -15.4 °C 3.9 °F /  -15.6 °C 1017.2 in /  34442.4 hPa North 4.7 mph /  7.6 km/h 11.3 mph /  18.2 km/h 97 % 0.5 in /  12.7 mm
08:56 4.3 °F /  -15.4 °C 3.9 °F /  -15.6 °C 1017.2 in /  34442.4 hPa NNE 3.2 mph /  5.1 km/h 6.4 mph /  10.3 km/h 97 % 0.5 in /  12.7 mm
09:02 4.4 °F /  -15.3 °C 4.0 °F /  -15.6 °C 1017.2 in /  34442.4 hPa NW 1.4 mph /  2.3 km/h 8.0 mph /  12.9 km/h 97 % 0.5 in /  12.7 mm
09:08 4.4 °F /  -15.3 °C 4.0 °F /  -15.6 °C 1017.5 in /  34452.6 hPa NW 3.2 mph /  5.1 km/h 4.8 mph /  7.7 km/h 97 % 0.5 in /  12.7 mm
09:14 4.4 °F /  -15.3 °C 4.0 °F /  -15.6 °C 1017.2 in /  34442.4 hPa NNE 1.4 mph /  2.3 km/h 8.0 mph /  12.9 km/h 97 % 0.8 in /  20.32 mm
09:20 4.5 °F /  -15.3 °C 4.1 °F /  -15.5 °C 1017.2 in /  34442.4 hPa North 4.7 mph /  7.6 km/h 8.0 mph /  12.9 km/h 97 % 0.8 in /  20.32 mm
09:26 4.6 °F /  -15.2 °C 4.2 °F /  -15.4 °C 1017.5 in /  34452.6 hPa NNE 4.7 mph /  7.6 km/h 8.0 mph /  12.9 km/h 97 % 0.8 in /  20.32 mm
09:32 4.7 °F /  -15.2 °C 4.3 °F /  -15.4 °C 1017.5 in /  34452.6 hPa NNW 4.7 mph /  7.6 km/h 4.8 mph /  7.7 km/h 97 % 0.8 in /  20.32 mm
09:38 4.7 °F /  -15.2 °C 4.3 °F /  -15.4 °C 1017.5 in /  34452.6 hPa NNW 1.4 mph /  2.3 km/h 4.8 mph /  7.7 km/h 97 % 0.8 in /  20.32 mm
09:44 4.7 °F /  -15.2 °C 4.3 °F /  -15.4 °C 1017.8 in /  34462.7 hPa NNW 1.4 mph /  2.3 km/h 4.8 mph /  7.7 km/h 97 % 0.8 in /  20.32 mm
09:50 4.8 °F /  -15.1 °C 4.4 °F /  -15.3 °C 1017.8 in /  34462.7 hPa NNW 1.4 mph /  2.3 km/h 4.8 mph /  7.7 km/h 97 % 0.8 in /  20.32 mm
09:56 4.8 °F /  -15.1 °C 4.4 °F /  -15.3 °C 1017.8 in /  34462.7 hPa NNW 1.4 mph /  2.3 km/h 3.2 mph /  5.1 km/h 97 % 0.8 in /  20.32 mm
10:02 4.9 °F /  -15.1 °C 4.5 °F /  -15.3 °C 1017.8 in /  34462.7 hPa NW 3.2 mph /  5.1 km/h 4.8 mph /  7.7 km/h 97 % 1.0 in /  25.4 mm
10:08 4.9 °F /  -15.1 °C 4.5 °F /  -15.3 °C 1017.8 in /  34462.7 hPa NNW 1.4 mph /  2.3 km/h 4.8 mph /  7.7 km/h 97 % 0.8 in /  20.32 mm
10:14 4.9 °F /  -15.1 °C 4.5 °F /  -15.3 °C 1017.8 in /  34462.7 hPa Calm   6.4 mph /  10.3 km/h 97 % 0.8 in /  20.32 mm
10:20 5.1 °F /  -14.9 °C 4.7 °F /  -15.2 °C 1017.8 in /  34462.7 hPa North 1.4 mph /  2.3 km/h 3.2 mph /  5.1 km/h 97 % 0.8 in /  20.32 mm
10:26 5.1 °F /  -14.9 °C 4.7 °F /  -15.2 °C 1018.2 in /  34476.3 hPa Calm   4.8 mph /  7.7 km/h 97 % 0.8 in /  20.32 mm
10:32 5.2 °F /  -14.9 °C 4.8 °F /  -15.1 °C 1017.8 in /  34462.7 hPa North 4.7 mph /  7.6 km/h 6.4 mph /  10.3 km/h 97 % 0.5 in /  12.7 mm
10:38 5.2 °F /  -14.9 °C 4.6 °F /  -15.2 °C 1018.2 in /  34476.3 hPa NNE 6.4 mph /  10.3 km/h 6.4 mph /  10.3 km/h 96 % 0.5 in /  12.7 mm
10:44 5.1 °F /  -14.9 °C 4.5 °F /  -15.3 °C 1018.2 in /  34476.3 hPa NW 3.2 mph /  5.1 km/h 8.0 mph /  12.9 km/h 96 % 0.5 in /  12.7 mm
10:50 5.2 °F /  -14.9 °C 4.6 °F /  -15.2 °C 1018.5 in /  34486.4 hPa North 3.2 mph /  5.1 km/h 4.8 mph /  7.7 km/h 96 % 0.5 in /  12.7 mm
10:56 5.2 °F /  -14.9 °C 4.6 °F /  -15.2 °C 1018.5 in /  34486.4 hPa NW 1.4 mph /  2.3 km/h 4.8 mph /  7.7 km/h 96 % 0.5 in /  12.7 mm
11:02 5.2 °F /  -14.9 °C 4.6 °F /  -15.2 °C 1018.5 in /  34486.4 hPa NNW 7.9 mph /  12.7 km/h 11.3 mph /  18.2 km/h 96 % 0.5 in /  12.7 mm
11:13 5.2 °F /  -14.9 °C 4.6 °F /  -15.2 °C 1018.8 in /  34496.6 hPa NNW 4.7 mph /  7.6 km/h 8.0 mph /  12.9 km/h 96 % 0.5 in /  12.7 mm
11:20 5.2 °F /  -14.9 °C 4.6 °F /  -15.2 °C 1018.8 in /  34496.6 hPa North 7.9 mph /  12.7 km/h 9.7 mph /  15.6 km/h 96 % 0.5 in /  12.7 mm
11:26 5.3 °F /  -14.8 °C 4.7 °F /  -15.2 °C 1019.2 in /  34510.1 hPa North 3.2 mph /  5.1 km/h 4.8 mph /  7.7 km/h 96 % 0.5 in /  12.7 mm
11:32 5.3 °F /  -14.8 °C 4.7 °F /  -15.2 °C 1019.2 in /  34510.1 hPa NNW 7.9 mph /  12.7 km/h 9.7 mph /  15.6 km/h 96 % 0.8 in /  20.32 mm
11:38 5.3 °F /  -14.8 °C 4.6 °F /  -15.2 °C 1019.5 in /  34520.3 hPa NNW 6.4 mph /  10.3 km/h 9.7 mph /  15.6 km/h 95 % 0.8 in /  20.32 mm
11:44 5.3 °F /  -14.8 °C 4.6 °F /  -15.2 °C 1019.5 in /  34520.3 hPa North 4.7 mph /  7.6 km/h 11.3 mph /  18.2 km/h 95 % 1.0 in /  25.4 mm
11:50 5.2 °F /  -14.9 °C 4.5 °F /  -15.3 °C 1019.5 in /  34520.3 hPa North 6.4 mph /  10.3 km/h 9.7 mph /  15.6 km/h 95 % 1.0 in /  25.4 mm
11:56 5.3 °F /  -14.8 °C 4.6 °F /  -15.2 °C 1019.5 in /  34520.3 hPa North 7.9 mph /  12.7 km/h 9.7 mph /  15.6 km/h 95 % 1.0 in /  25.4 mm
12:02 5.3 °F /  -14.8 °C 4.6 °F /  -15.2 °C 1019.5 in /  34520.3 hPa NNW 9.7 mph /  15.6 km/h 11.3 mph /  18.2 km/h 95 % 1.0 in /  25.4 mm
12:08 5.3 °F /  -14.8 °C 4.6 °F /  -15.2 °C 1019.9 in /  34533.8 hPa NW 3.2 mph /  5.1 km/h 9.7 mph /  15.6 km/h 95 % 1.0 in /  25.4 mm
12:14 5.2 °F /  -14.9 °C 4.5 °F /  -15.3 °C 1019.9 in /  34533.8 hPa NW 4.7 mph /  7.6 km/h 12.9 mph /  20.8 km/h 95 % 1.0 in /  25.4 mm
12:20 5.3 °F /  -14.8 °C 4.6 °F /  -15.2 °C 1019.9 in /  34533.8 hPa NNW 6.4 mph /  10.3 km/h 11.3 mph /  18.2 km/h 95 % 1.0 in /  25.4 mm
12:26 5.3 °F /  -14.8 °C 4.6 °F /  -15.2 °C 1020.2 in /  34544 hPa NNW 6.4 mph /  10.3 km/h 9.7 mph /  15.6 km/h 95 % 1.3 in /  33.02 mm
12:32 5.3 °F /  -14.8 °C 4.6 °F /  -15.2 °C 1020.2 in /  34544 hPa NNW 4.7 mph /  7.6 km/h 11.3 mph /  18.2 km/h 95 % 1.0 in /  25.4 mm
12:38 5.3 °F /  -14.8 °C 4.4 °F /  -15.3 °C 1020.2 in /  34544 hPa NNW 11.1 mph /  17.9 km/h 16.1 mph /  25.9 km/h 94 % 1.0 in /  25.4 mm
12:44 5.3 °F /  -14.8 °C 4.4 °F /  -15.3 °C 1020.5 in /  34554.1 hPa NNW 7.9 mph /  12.7 km/h 14.5 mph /  23.3 km/h 94 % 0.8 in /  20.32 mm
12:50 5.3 °F /  -14.8 °C 4.3 °F /  -15.4 °C 1020.5 in /  34554.1 hPa NE 7.9 mph /  12.7 km/h 14.5 mph /  23.3 km/h 93 % 0.5 in /  12.7 mm
12:56 5.3 °F /  -14.8 °C 4.3 °F /  -15.4 °C 1020.5 in /  34554.1 hPa NNE 4.7 mph /  7.6 km/h 11.3 mph /  18.2 km/h 93 % 0.8 in /  20.32 mm
13:02 5.4 °F /  -14.8 °C 4.4 °F /  -15.3 °C 1020.5 in /  34554.1 hPa North 3.2 mph /  5.1 km/h 14.5 mph /  23.3 km/h 93 % 0.5 in /  12.7 mm
13:08 5.6 °F /  -14.7 °C 4.6 °F /  -15.2 °C 1020.5 in /  34554.1 hPa North 9.7 mph /  15.6 km/h 11.3 mph /  18.2 km/h 93 % 0.5 in /  12.7 mm
13:14 5.4 °F /  -14.8 °C 4.2 °F /  -15.4 °C 1020.5 in /  34554.1 hPa NNW 7.9 mph /  12.7 km/h 12.9 mph /  20.8 km/h 92 % 0.5 in /  12.7 mm
13:20 5.4 °F /  -14.8 °C 4.2 °F /  -15.4 °C 1020.5 in /  34554.1 hPa NNE 7.9 mph /  12.7 km/h 16.1 mph /  25.9 km/h 92 % 0.5 in /  12.7 mm
13:26 5.4 °F /  -14.8 °C 4.2 °F /  -15.4 °C 1020.5 in /  34554.1 hPa NE 4.7 mph /  7.6 km/h 12.9 mph /  20.8 km/h 92 % 0.3 in /  7.62 mm
13:32 5.4 °F /  -14.8 °C 4.2 °F /  -15.4 °C 1020.9 in /  34567.7 hPa North 7.9 mph /  12.7 km/h 14.5 mph /  23.3 km/h 92 % 0.5 in /  12.7 mm
13:38 5.3 °F /  -14.8 °C 4.0 °F /  -15.6 °C 1020.9 in /  34567.7 hPa North 7.9 mph /  12.7 km/h 17.7 mph /  28.5 km/h 91 % 0.5 in /  12.7 mm
13:44 5.4 °F /  -14.8 °C 4.2 °F /  -15.4 °C 1020.9 in /  34567.7 hPa NNW 9.7 mph /  15.6 km/h 16.1 mph /  25.9 km/h 92 % 0.5 in /  12.7 mm
13:50 5.5 °F /  -14.7 °C 4.3 °F /  -15.4 °C 1020.9 in /  34567.7 hPa NNW 11.1 mph /  17.9 km/h 19.3 mph /  31.1 km/h 92 % 0.5 in /  12.7 mm
13:56 5.5 °F /  -14.7 °C 4.3 °F /  -15.4 °C 1020.9 in /  34567.7 hPa NE 17.7 mph /  28.5 km/h 17.7 mph /  28.5 km/h 92 % 0.3 in /  7.62 mm
14:02 5.6 °F /  -14.7 °C 4.4 °F /  -15.3 °C 1020.9 in /  34567.7 hPa NW 7.9 mph /  12.7 km/h 12.9 mph /  20.8 km/h 92 % 0.3 in /  7.62 mm
14:08 5.7 °F /  -14.6 °C 4.5 °F /  -15.3 °C 1021.2 in /  34577.8 hPa NNE 9.7 mph /  15.6 km/h 9.7 mph /  15.6 km/h 92 % 0.3 in /  7.62 mm
14:14 5.8 °F /  -14.6 °C 4.6 °F /  -15.2 °C 1021.2 in /  34577.8 hPa NNW 13.0 mph /  20.9 km/h 14.5 mph /  23.3 km/h 92 % 0.3 in /  7.62 mm
14:20 5.7 °F /  -14.6 °C 4.3 °F /  -15.4 °C 1021.2 in /  34577.8 hPa North 13.0 mph /  20.9 km/h 20.9 mph /  33.6 km/h 91 % 0.3 in /  7.62 mm
14:26 5.7 °F /  -14.6 °C 4.3 °F /  -15.4 °C 1021.2 in /  34577.8 hPa NE 4.7 mph /  7.6 km/h 16.1 mph /  25.9 km/h 91 % 0.3 in /  7.62 mm
14:32 5.8 °F /  -14.6 °C 4.4 °F /  -15.3 °C 1021.2 in /  34577.8 hPa NNE 9.7 mph /  15.6 km/h 14.5 mph /  23.3 km/h 91 % 0.0 in /  0 mm
14:38 5.8 °F /  -14.6 °C 4.4 °F /  -15.3 °C 1021.2 in /  34577.8 hPa NNE 1.4 mph /  2.3 km/h 9.7 mph /  15.6 km/h 91 % 0.0 in /  0 mm
14:44 6.0 °F /  -14.4 °C 4.6 °F /  -15.2 °C 1021.2 in /  34577.8 hPa NW 3.2 mph /  5.1 km/h 11.3 mph /  18.2 km/h 91 % 0.0 in /  0 mm
14:50 6.1 °F /  -14.4 °C 4.7 °F /  -15.2 °C 1021.6 in /  34591.4 hPa NNE 4.7 mph /  7.6 km/h 9.7 mph /  15.6 km/h 91 % 0.0 in /  0 mm
14:56 6.0 °F /  -14.4 °C 4.5 °F /  -15.3 °C 1021.6 in /  34591.4 hPa NNW 4.7 mph /  7.6 km/h 9.7 mph /  15.6 km/h 90 % 0.0 in /  0 mm
15:02 6.1 °F /  -14.4 °C 4.7 °F /  -15.2 °C 1021.2 in /  34577.8 hPa NNW 1.4 mph /  2.3 km/h 9.7 mph /  15.6 km/h 91 % 0.0 in /  0 mm
15:08 6.1 °F /  -14.4 °C 4.6 °F /  -15.2 °C 1021.6 in /  34591.4 hPa NNW 3.2 mph /  5.1 km/h 8.0 mph /  12.9 km/h 90 % 0.0 in /  0 mm
15:14 6.3 °F /  -14.3 °C 4.9 °F /  -15.1 °C 1021.6 in /  34591.4 hPa Calm   6.4 mph /  10.3 km/h 91 % 0.0 in /  0 mm
15:20 6.4 °F /  -14.2 °C 4.9 °F /  -15.1 °C 1021.6 in /  34591.4 hPa NE 1.4 mph /  2.3 km/h 8.0 mph /  12.9 km/h 90 % 0.0 in /  0 mm
15:26 6.5 °F /  -14.2 °C 4.8 °F /  -15.1 °C 1021.6 in /  34591.4 hPa NE 4.7 mph /  7.6 km/h 9.7 mph /  15.6 km/h 89 % 0.0 in /  0 mm
15:32 6.6 °F /  -14.1 °C 4.8 °F /  -15.1 °C 1021.9 in /  34601.5 hPa NE 7.9 mph /  12.7 km/h 12.9 mph /  20.8 km/h 88 % 0.0 in /  0 mm
15:38 6.6 °F /  -14.1 °C 4.6 °F /  -15.2 °C 1021.9 in /  34601.5 hPa North 9.7 mph /  15.6 km/h 11.3 mph /  18.2 km/h 87 % 0.0 in /  0 mm
15:44 6.6 °F /  -14.1 °C 4.6 °F /  -15.2 °C 1021.9 in /  34601.5 hPa NW 3.2 mph /  5.1 km/h 12.9 mph /  20.8 km/h 87 % 0.0 in /  0 mm
15:50 6.7 °F /  -14.1 °C 4.9 °F /  -15.1 °C 1021.9 in /  34601.5 hPa NE 3.2 mph /  5.1 km/h 3.2 mph /  5.1 km/h 88 % 0.0 in /  0 mm
15:56 6.7 °F /  -14.1 °C 4.9 °F /  -15.1 °C 1021.9 in /  34601.5 hPa NW 6.4 mph /  10.3 km/h 11.3 mph /  18.2 km/h 88 % 0.0 in /  0 mm
16:02 6.7 °F /  -14.1 °C 4.7 °F /  -15.2 °C 1022.2 in /  34611.7 hPa NNW 3.2 mph /  5.1 km/h 9.7 mph /  15.6 km/h 87 % 0.0 in /  0 mm
16:08 6.6 °F /  -14.1 °C 4.8 °F /  -15.1 °C 1022.2 in /  34611.7 hPa NW 1.4 mph /  2.3 km/h 6.4 mph /  10.3 km/h 88 % 0.0 in /  0 mm
16:14 6.5 °F /  -14.2 °C 4.5 °F /  -15.3 °C 1022.2 in /  34611.7 hPa West 3.2 mph /  5.1 km/h 11.3 mph /  18.2 km/h 87 % 0.0 in /  0 mm
16:20 6.4 °F /  -14.2 °C 4.6 °F /  -15.2 °C 1022.2 in /  34611.7 hPa WNW 3.2 mph /  5.1 km/h 9.7 mph /  15.6 km/h 88 % 0.0 in /  0 mm
16:26 6.4 °F /  -14.2 °C 4.7 °F /  -15.2 °C 1022.2 in /  34611.7 hPa NNW 4.7 mph /  7.6 km/h 4.8 mph /  7.7 km/h 89 % 0.0 in /  0 mm
16:32 6.4 °F /  -14.2 °C 4.6 °F /  -15.2 °C 1022.2 in /  34611.7 hPa NNE 4.7 mph /  7.6 km/h 9.7 mph /  15.6 km/h 88 % 0.0 in /  0 mm
16:38 6.4 °F /  -14.2 °C 4.7 °F /  -15.2 °C 1022.2 in /  34611.7 hPa North 3.2 mph /  5.1 km/h 6.4 mph /  10.3 km/h 89 % 0.0 in /  0 mm
16:45 6.4 °F /  -14.2 °C 4.7 °F /  -15.2 °C 1022.2 in /  34611.7 hPa NW 1.4 mph /  2.3 km/h 3.2 mph /  5.1 km/h 89 % 0.0 in /  0 mm
16:51 6.4 °F /  -14.2 °C 4.7 °F /  -15.2 °C 1022.6 in /  34625.2 hPa NNW 4.7 mph /  7.6 km/h 9.7 mph /  15.6 km/h 89 % 0.0 in /  0 mm
16:57 6.4 °F /  -14.2 °C 4.7 °F /  -15.2 °C 1022.6 in /  34625.2 hPa NNW 4.7 mph /  7.6 km/h 6.4 mph /  10.3 km/h 89 % 0.0 in /  0 mm
17:03 6.4 °F /  -14.2 °C 4.9 °F /  -15.1 °C 1022.6 in /  34625.2 hPa NW 3.2 mph /  5.1 km/h 4.8 mph /  7.7 km/h 90 % 0.0 in /  0 mm
17:09 6.4 °F /  -14.2 °C 4.9 °F /  -15.1 °C 1022.6 in /  34625.2 hPa WNW 3.2 mph /  5.1 km/h 6.4 mph /  10.3 km/h 90 % 0.0 in /  0 mm
17:15 6.3 °F /  -14.3 °C 4.6 °F /  -15.2 °C 1022.9 in /  34635.4 hPa NNW 1.4 mph /  2.3 km/h 8.0 mph /  12.9 km/h 89 % 0.0 in /  0 mm
17:21 6.3 °F /  -14.3 °C 4.6 °F /  -15.2 °C 1022.9 in /  34635.4 hPa NNW 1.4 mph /  2.3 km/h 1.6 mph /  2.6 km/h 89 % 0.0 in /  0 mm
17:27 6.3 °F /  -14.3 °C 4.6 °F /  -15.2 °C 1022.9 in /  34635.4 hPa NNW 3.2 mph /  5.1 km/h 4.8 mph /  7.7 km/h 89 % 0.0 in /  0 mm
17:33 6.2 °F /  -14.3 °C 4.5 °F /  -15.3 °C 1022.9 in /  34635.4 hPa NW 3.2 mph /  5.1 km/h 3.2 mph /  5.1 km/h 89 % 0.0 in /  0 mm
17:39 6.2 °F /  -14.3 °C 4.5 °F /  -15.3 °C 1023.2 in /  34645.6 hPa NNW 1.4 mph /  2.3 km/h 4.8 mph /  7.7 km/h 89 % 0.0 in /  0 mm
17:45 6.2 °F /  -14.3 °C 4.5 °F /  -15.3 °C 1023.2 in /  34645.6 hPa NW 3.2 mph /  5.1 km/h 4.8 mph /  7.7 km/h 89 % 0.0 in /  0 mm
17:51 6.2 °F /  -14.3 °C 4.7 °F /  -15.2 °C 1023.2 in /  34645.6 hPa NW 1.4 mph /  2.3 km/h 3.2 mph /  5.1 km/h 90 % 0.0 in /  0 mm
17:57 6.2 °F /  -14.3 °C 4.7 °F /  -15.2 °C 1023.2 in /  34645.6 hPa NNW 6.4 mph /  10.3 km/h 6.4 mph /  10.3 km/h 90 % 0.0 in /  0 mm
18:03 6.2 °F /  -14.3 °C 4.7 °F /  -15.2 °C 1023.2 in /  34645.6 hPa NW 1.4 mph /  2.3 km/h 1.6 mph /  2.6 km/h 90 % 0.0 in /  0 mm
18:09 6.1 °F /  -14.4 °C 4.6 °F /  -15.2 °C 1023.2 in /  34645.6 hPa Calm   1.6 mph /  2.6 km/h 90 % 0.0 in /  0 mm
18:15 6.1 °F /  -14.4 °C 4.7 °F /  -15.2 °C 1023.2 in /  34645.6 hPa NNW 1.4 mph /  2.3 km/h 1.6 mph /  2.6 km/h 91 % 0.0 in /  0 mm
18:21 6.1 °F /  -14.4 °C 4.7 °F /  -15.2 °C 1023.6 in /  34659.1 hPa Calm   1.6 mph /  2.6 km/h 91 % 0.0 in /  0 mm
18:27 6.1 °F /  -14.4 °C 4.7 °F /  -15.2 °C 1023.6 in /  34659.1 hPa NW 3.2 mph /  5.1 km/h 3.2 mph /  5.1 km/h 91 % 0.0 in /  0 mm
18:33 6.1 °F /  -14.4 °C 4.7 °F /  -15.2 °C 1023.6 in /  34659.1 hPa Calm   3.2 mph /  5.1 km/h 91 % 0.0 in /  0 mm
18:39 5.9 °F /  -14.5 °C 4.5 °F /  -15.3 °C 1023.9 in /  34669.3 hPa WNW 1.4 mph /  2.3 km/h 3.2 mph /  5.1 km/h 91 % 0.0 in /  0 mm
18:45 5.9 °F /  -14.5 °C 4.5 °F /  -15.3 °C 1023.9 in /  34669.3 hPa WNW 1.4 mph /  2.3 km/h 4.8 mph /  7.7 km/h 91 % 0.0 in /  0 mm
18:51 5.9 °F /  -14.5 °C 4.7 °F /  -15.2 °C 1023.9 in /  34669.3 hPa West 3.2 mph /  5.1 km/h 4.8 mph /  7.7 km/h 92 % 0.0 in /  0 mm
18:57 5.9 °F /  -14.5 °C 4.5 °F /  -15.3 °C 1023.9 in /  34669.3 hPa WNW 1.4 mph /  2.3 km/h 6.4 mph /  10.3 km/h 91 % 0.0 in /  0 mm
19:03 5.9 °F /  -14.5 °C 4.5 °F /  -15.3 °C 1023.9 in /  34669.3 hPa WNW 3.2 mph /  5.1 km/h 6.4 mph /  10.3 km/h 91 % 0.0 in /  0 mm
19:09 5.8 °F /  -14.6 °C 4.4 °F /  -15.3 °C 1024.3 in /  34682.8 hPa NW 1.4 mph /  2.3 km/h 3.2 mph /  5.1 km/h 91 % 0.0 in /  0 mm
19:15 5.8 °F /  -14.6 °C 4.4 °F /  -15.3 °C 1024.3 in /  34682.8 hPa NW 1.4 mph /  2.3 km/h 4.8 mph /  7.7 km/h 91 % 0.0 in /  0 mm
19:21 5.8 °F /  -14.6 °C 4.4 °F /  -15.3 °C 1024.3 in /  34682.8 hPa Calm   3.2 mph /  5.1 km/h 91 % 0.0 in /  0 mm
19:27 5.8 °F /  -14.6 °C 4.4 °F /  -15.3 °C 1024.3 in /  34682.8 hPa Calm   1.6 mph /  2.6 km/h 91 % 0.0 in /  0 mm
19:33 5.7 °F /  -14.6 °C 4.3 °F /  -15.4 °C 1024.3 in /  34682.8 hPa Calm   1.6 mph /  2.6 km/h 91 % 0.0 in /  0 mm
19:39 5.7 °F /  -14.6 °C 4.3 °F /  -15.4 °C 1024.3 in /  34682.8 hPa NNW 1.4 mph /  2.3 km/h 1.6 mph /  2.6 km/h 91 % 0.0 in /  0 mm
19:45 5.7 °F /  -14.6 °C 4.3 °F /  -15.4 °C 1024.3 in /  34682.8 hPa Calm   1.6 mph /  2.6 km/h 91 % 0.0 in /  0 mm
19:51 5.6 °F /  -14.7 °C 4.4 °F /  -15.3 °C 1024.3 in /  34682.8 hPa Calm   1.6 mph /  2.6 km/h 92 % 0.0 in /  0 mm
20:03 5.4 °F /  -14.8 °C 4.2 °F /  -15.4 °C 1024.3 in /  34682.8 hPa North 1.4 mph /  2.3 km/h 1.6 mph /  2.6 km/h 92 % 0.0 in /  0 mm
20:09 5.3 °F /  -14.8 °C 4.1 °F /  -15.5 °C 1024.6 in /  34693 hPa Calm   1.6 mph /  2.6 km/h 92 % 0.0 in /  0 mm
20:15 5.2 °F /  -14.9 °C 4.0 °F /  -15.6 °C 1024.6 in /  34693 hPa Calm   1.6 mph /  2.6 km/h 92 % 0.0 in /  0 mm
20:22 5.1 °F /  -14.9 °C 4.1 °F /  -15.5 °C 1024.6 in /  34693 hPa North 1.4 mph /  2.3 km/h 1.6 mph /  2.6 km/h 93 % 0.0 in /  0 mm
20:28 5.0 °F /  -15 °C 4.0 °F /  -15.6 °C 1024.6 in /  34693 hPa Calm     93 % 0.0 in /  0 mm
20:34 4.9 °F /  -15.1 °C 3.9 °F /  -15.6 °C 1024.6 in /  34693 hPa Calm     93 % 0.0 in /  0 mm
20:40 4.7 °F /  -15.2 °C 3.7 °F /  -15.7 °C 1024.6 in /  34693 hPa Calm     93 % 0.0 in /  0 mm
20:46 4.6 °F /  -15.2 °C 3.7 °F /  -15.7 °C 1024.6 in /  34693 hPa Calm   1.6 mph /  2.6 km/h 94 % 0.0 in /  0 mm
20:52 4.4 °F /  -15.3 °C 3.5 °F /  -15.8 °C 1024.6 in /  34693 hPa Calm     94 % 0.0 in /  0 mm
20:58 4.2 °F /  -15.4 °C 3.3 °F /  -15.9 °C 1024.9 in /  34703.1 hPa Calm     94 % 0.0 in /  0 mm
21:04 3.9 °F /  -15.6 °C 3.0 °F /  -16.1 °C 1024.9 in /  34703.1 hPa Calm   3.2 mph /  5.1 km/h 94 % 0.0 in /  0 mm
21:10 4.2 °F /  -15.4 °C 3.5 °F /  -15.8 °C 1024.9 in /  34703.1 hPa Calm   1.6 mph /  2.6 km/h 95 % 0.0 in /  0 mm
21:16 4.3 °F /  -15.4 °C 3.6 °F /  -15.8 °C 1024.9 in /  34703.1 hPa Calm     95 % 0.0 in /  0 mm
21:22 4.3 °F /  -15.4 °C 3.6 °F /  -15.8 °C 1024.9 in /  34703.1 hPa Calm   1.6 mph /  2.6 km/h 95 % 0.0 in /  0 mm
21:28 4.3 °F /  -15.4 °C 3.6 °F /  -15.8 °C 1024.9 in /  34703.1 hPa Calm     95 % 0.0 in /  0 mm
21:34 4.2 °F /  -15.4 °C 3.5 °F /  -15.8 °C 1024.9 in /  34703.1 hPa Calm     95 % 0.0 in /  0 mm
21:40 3.9 °F /  -15.6 °C 3.0 °F /  -16.1 °C 1024.9 in /  34703.1 hPa Calm     94 % 0.0 in /  0 mm
21:46 3.8 °F /  -15.7 °C 3.1 °F /  -16.1 °C 1024.9 in /  34703.1 hPa Calm     95 % 0.0 in /  0 mm
21:52 3.6 °F /  -15.8 °C 2.7 °F /  -16.3 °C 1024.9 in /  34703.1 hPa Calm     94 % 0.0 in /  0 mm
21:58 3.4 °F /  -15.9 °C 2.7 °F /  -16.3 °C 1024.9 in /  34703.1 hPa Calm     95 % 0.0 in /  0 mm
22:04 3.4 °F /  -15.9 °C 2.7 °F /  -16.3 °C 1024.9 in /  34703.1 hPa Calm     95 % 0.0 in /  0 mm
22:10 3.1 °F /  -16.1 °C 2.4 °F /  -16.4 °C 1024.9 in /  34703.1 hPa Calm     95 % 0.0 in /  0 mm
22:18 2.8 °F /  -16.2 °C 2.1 °F /  -16.6 °C 1025.3 in /  34716.7 hPa Calm     95 % 0.0 in /  0 mm
22:24 3.1 °F /  -16.1 °C 2.5 °F /  -16.4 °C 1025.3 in /  34716.7 hPa Calm   1.6 mph /  2.6 km/h 96 % 0.0 in /  0 mm
22:30 3.3 °F /  -15.9 °C 2.7 °F /  -16.3 °C 1025.3 in /  34716.7 hPa Calm     96 % 0.0 in /  0 mm
22:36 3.4 °F /  -15.9 °C 2.8 °F /  -16.2 °C 1025.3 in /  34716.7 hPa Calm     96 % 0.0 in /  0 mm
22:42 3.3 °F /  -15.9 °C 2.7 °F /  -16.3 °C 1025.6 in /  34726.8 hPa Calm     96 % 0.0 in /  0 mm
22:48 3.2 °F /  -16 °C 2.6 °F /  -16.3 °C 1025.6 in /  34726.8 hPa Calm     96 % 0.0 in /  0 mm
22:54 3.1 °F /  -16.1 °C 2.5 °F /  -16.4 °C 1025.6 in /  34726.8 hPa Calm     96 % 0.0 in /  0 mm
23:00 3.1 °F /  -16.1 °C 2.5 °F /  -16.4 °C 1025.6 in /  34726.8 hPa Calm     96 % 0.0 in /  0 mm
23:06 3.0 °F /  -16.1 °C 2.4 °F /  -16.4 °C 1025.6 in /  34726.8 hPa Calm     96 % 0.0 in /  0 mm
23:12 3.1 °F /  -16.1 °C 2.7 °F /  -16.3 °C 1025.6 in /  34726.8 hPa Calm     97 % 0.0 in /  0 mm
23:18 3.4 °F /  -15.9 °C 3.0 °F /  -16.1 °C 1025.6 in /  34726.8 hPa Calm     97 % 0.0 in /  0 mm
23:24 3.2 °F /  -16 °C 2.6 °F /  -16.3 °C 1025.6 in /  34726.8 hPa Calm   1.6 mph /  2.6 km/h 96 % 0.0 in /  0 mm
23:30 3.1 °F /  -16.1 °C 2.5 °F /  -16.4 °C 1025.6 in /  34726.8 hPa Calm   1.6 mph /  2.6 km/h 96 % 0.0 in /  0 mm
23:36 3.1 °F /  -16.1 °C 2.7 °F /  -16.3 °C 1025.6 in /  34726.8 hPa Calm   1.6 mph /  2.6 km/h 97 % 0.0 in /  0 mm
23:42 3.3 °F /  -15.9 °C 2.9 °F /  -16.2 °C 1025.6 in /  34726.8 hPa Calm   1.6 mph /  2.6 km/h 97 % 0.0 in /  0 mm
23:48 3.1 °F /  -16.1 °C 2.5 °F /  -16.4 °C 1025.6 in /  34726.8 hPa Calm   1.6 mph /  2.6 km/h 96 % 0.0 in /  0 mm
23:54 3.0 °F /  -16.1 °C 2.4 °F /  -16.4 °C 1025.6 in /  34726.8 hPa Calm   1.6 mph /  2.6 km/h 96 % 0.0 in /  0 mm
Meteo18
Compliments of Weather Underground - 4 mb

Script developed by  Jim McMurry - jmcmurry@mwt.net Adapted for the template by  Wim van der Kuil - Leuven-Template.eu

You find our weather info also at:

European Weather Network

Weather Underground

Equipment we use:

Weather-station
Davis Vue

Weather-program
Meteobridge

Weather-server
Raspberry PI 2 B+

Provider
1 and 1

Davis Vue

Meteobridge

Raspberry PI 2 B+

1 and 1